Time;durP1;ratioP1;P1;durP2;ratioP2;P2;SDS_P1;SDS_P2;PMS_P1;PMS_P2;Temp;Humidity;BMP_temperature;BMP_pressure;BME280_temperature;BME280_humidity;BME280_pressure;Samples;Min_cycle;Max_cycle;Signal;HPM_P1;HPM_P2
2023/06/30 00:00:56;;;;;;;10.50;6.43;;;20.70;99.90;;;19.95;88.69;100670.53;5034589;28;20033;-68
2023/06/30 00:03:22;;;;;;;10.57;6.20;;;20.60;99.90;;;19.94;88.68;100675.06;5036251;28;20171;-68
2023/06/30 00:05:48;;;;;;;9.80;6.13;;;20.60;99.90;;;19.92;88.87;100668.16;5037421;28;20497;-68
2023/06/30 00:08:15;;;;;;;8.50;5.85;;;20.60;99.90;;;19.90;88.75;100665.59;5032104;22;20058;-72
2023/06/30 00:10:41;;;;;;;9.10;6.72;;;20.60;99.90;;;19.89;88.76;100658.56;4999782;28;20034;-71
2023/06/30 00:13:07;;;;;;;7.68;6.30;;;20.60;99.90;;;19.85;89.25;100660.66;5013614;28;20025;-70
2023/06/30 00:15:33;;;;;;;9.05;5.95;;;20.60;99.90;;;19.87;88.94;100666.72;5016922;28;20041;-68
2023/06/30 00:17:58;;;;;;;9.68;5.88;;;20.60;99.90;;;19.90;88.90;100665.59;5015938;28;20034;-69
2023/06/30 00:20:24;;;;;;;7.97;5.80;;;20.50;99.90;;;19.80;90.16;100659.34;5017812;28;20104;-70
2023/06/30 00:22:52;;;;;;;9.75;6.65;;;20.60;99.90;;;19.81;89.79;100664.56;5016975;28;20058;-70
2023/06/30 00:25:18;;;;;;;13.07;5.82;;;20.60;99.90;;;19.80;89.69;100667.38;5033119;28;20018;-68
2023/06/30 00:27:43;;;;;;;10.18;6.80;;;20.50;99.90;;;19.78;89.88;100656.81;5040775;28;20048;-69
2023/06/30 00:30:10;;;;;;;10.93;7.30;;;20.50;99.90;;;19.78;89.95;100661.31;5020754;28;20253;-69
2023/06/30 00:32:35;;;;;;;9.57;6.47;;;20.40;99.90;;;19.74;90.20;100660.75;5045208;28;20067;-69
2023/06/30 00:35:01;;;;;;;10.85;6.45;;;20.50;99.90;;;19.74;89.97;100663.44;5041495;28;20061;-69
2023/06/30 00:37:27;;;;;;;8.52;6.65;;;20.40;99.90;;;19.74;90.32;100654.53;5020215;28;20084;-69
2023/06/30 00:39:53;;;;;;;14.02;7.38;;;20.50;99.90;;;19.74;90.28;100655.41;5041778;28;20399;-70
2023/06/30 00:42:19;;;;;;;12.07;7.32;;;20.40;99.90;;;19.75;90.53;100656.25;5020676;28;20112;-69
2023/06/30 00:44:44;;;;;;;12.65;8.05;;;20.40;99.90;;;19.75;90.71;100656.25;5045468;28;20034;-70
2023/06/30 00:47:10;;;;;;;11.88;7.40;;;20.40;99.90;;;19.74;91.04;100663.44;5019740;28;20060;-70
2023/06/30 00:49:37;;;;;;;10.90;7.43;;;20.50;99.90;;;19.74;90.92;100658.09;5043960;28;20049;-70
2023/06/30 00:52:04;;;;;;;10.80;6.93;;;20.50;99.90;;;19.74;91.09;100660.75;5041835;28;20026;-69
2023/06/30 00:54:30;;;;;;;10.40;7.55;;;20.40;99.90;;;19.74;90.98;100660.75;5018315;28;20026;-71
2023/06/30 00:56:58;;;;;;;10.60;7.72;;;20.40;99.90;;;19.73;91.32;100664.38;5044127;28;20095;-69
2023/06/30 00:59:24;;;;;;;12.20;7.50;;;20.40;99.90;;;19.73;91.52;100668.88;5042712;28;20104;-69
2023/06/30 01:02:05;;;;;;;11.55;8.23;;;20.40;99.90;;;19.71;91.91;100655.66;5021070;28;20187;-69
2023/06/30 01:05:11;;;;;;;18.17;9.30;;;20.40;99.90;;;19.68;92.44;100655.91;5020666;28;20064;-70
2023/06/30 01:07:53;;;;;;;19.52;11.98;;;20.40;99.90;;;19.66;92.83;100660.53;5039788;28;20133;-69
2023/06/30 01:10:24;;;;;;;16.83;12.68;;;20.30;99.90;;;19.62;93.84;100659.09;5040478;28;20111;-69
2023/06/30 01:12:51;;;;;;;26.48;15.50;;;20.30;99.90;;;19.58;94.48;100655.84;5019257;28;20029;-69
2023/06/30 01:15:17;;;;;;;26.30;17.45;;;20.30;99.90;;;19.56;95.17;100660.44;5025124;28;20165;-70
2023/06/30 01:17:52;;;;;;;28.42;18.15;;;20.30;99.90;;;19.53;95.75;100651.88;5003965;28;20061;-69
2023/06/30 01:20:19;;;;;;;32.65;19.67;;;20.20;99.90;;;19.49;96.24;100648.63;5017786;28;20026;-68
2023/06/30 01:23:00;;;;;;;33.75;20.17;;;20.20;99.90;;;19.45;96.84;100656.03;5041519;28;20053;-69
2023/06/30 01:25:29;;;;;;;38.95;20.90;;;20.10;99.90;;;19.39;97.41;100651.22;5001006;28;20045;-69
2023/06/30 01:27:56;;;;;;;31.70;19.25;;;20.10;99.90;;;19.36;98.05;100661.31;5019870;28;20033;-70
2023/06/30 01:30:23;;;;;;;30.40;19.67;;;20.10;99.90;;;19.31;98.40;100656.38;5019545;28;20053;-70
2023/06/30 01:32:54;;;;;;;35.08;21.05;;;20.10;99.90;;;19.26;98.87;100666.56;5019137;28;20036;-70
2023/06/30 01:35:21;;;;;;;39.50;20.65;;;20.00;99.90;;;19.20;99.83;100662.63;5040692;28;20391;-69
2023/06/30 01:37:47;;;;;;;36.90;21.60;;;20.00;99.90;;;19.17;100.00;100660.19;5019241;28;20505;-69
2023/06/30 01:40:13;;;;;;;34.15;21.33;;;19.90;99.90;;;19.13;100.00;100664.09;5017867;28;20128;-70
2023/06/30 01:42:39;;;;;;;;;;;19.90;99.90;;;19.06;100.00;100666.41;5020550;28;20048;-70
2023/06/30 01:45:11;;;;;;;44.45;23.52;;;19.80;99.90;;;19.03;100.00;100663.19;5043908;28;19909;-72
2023/06/30 01:47:37;;;;;;;45.78;24.25;;;19.80;99.90;;;19.01;100.00;100662.47;5040143;28;20038;-72
2023/06/30 01:50:05;;;;;;;43.88;25.50;;;19.80;99.90;;;19.00;100.00;100660.75;5017363;28;20054;-73
2023/06/30 01:52:31;;;;;;;39.50;24.55;;;19.80;99.90;;;18.97;100.00;100663.69;5042127;28;20052;-74
2023/06/30 01:54:57;;;;;;;45.50;25.65;;;19.80;99.90;;;18.96;100.00;100659.31;5018330;28;20550;-74
2023/06/30 01:57:23;;;;;;;;;;;19.80;99.90;;;18.89;100.00;100663.47;5016541;28;20108;-74
2023/06/30 01:59:48;;;;;;;48.88;27.30;;;19.70;99.90;;;18.85;100.00;100669.06;5016153;28;19917;-74
2023/06/30 02:02:14;;;;;;;;;;;19.70;99.90;;;18.79;100.00;100664.22;5041366;28;20112;-75
2023/06/30 02:04:40;;;;;;;44.90;27.00;;;19.60;99.90;;;18.77;100.00;100670.63;5041378;28;20290;-74
2023/06/30 02:07:06;;;;;;;48.72;29.50;;;19.60;99.90;;;18.77;100.00;100670.63;5020622;28;20715;-74
2023/06/30 02:09:31;;;;;;;49.78;29.13;;;19.60;99.90;;;18.77;100.00;100670.63;5035154;28;20110;-75
2023/06/30 02:11:57;;;;;;;50.85;28.88;;;19.60;99.90;;;18.76;100.00;100674.25;5021389;28;20128;-76
2023/06/30 02:14:23;;;;;;;;;;;19.60;99.90;;;18.70;100.00;100669.44;5020440;28;20673;-76
2023/06/30 02:16:48;;;;;;;48.17;26.98;;;19.50;99.90;;;18.66;100.00;100671.53;5016378;28;19913;-76
2023/06/30 02:19:14;;;;;;;;;;;19.50;99.90;;;18.61;100.00;100665.69;5044630;28;20083;-75
2023/06/30 02:21:41;;;;;;;48.13;26.88;;;19.50;99.90;;;18.58;100.00;100657.97;5037328;28;19917;-75
2023/06/30 02:24:08;;;;;;;51.15;29.25;;;19.50;99.90;;;18.60;100.00;100661.34;5040127;28;20057;-75
2023/06/30 02:26:34;;;;;;;48.83;27.75;;;19.40;99.90;;;18.60;100.00;100656.84;5000185;28;20524;-74
2023/06/30 02:28:59;;;;;;;43.65;27.45;;;19.40;99.90;;;18.61;100.00;100661.19;5024698;28;20113;-75
2023/06/30 02:31:25;;;;;;;;;;;19.40;99.90;;;18.56;100.00;100641.22;5022670;28;20493;-74
2023/06/30 02:33:53;;;;;;;49.55;28.35;;;19.40;99.90;;;18.55;100.00;100650.19;5024209;28;19913;-75
2023/06/30 02:36:24;;;;;;;54.40;29.13;;;19.40;99.90;;;18.56;100.00;100652.75;5016694;28;20433;-75
2023/06/30 02:38:50;;;;;;;47.63;28.70;;;19.40;99.90;;;18.56;100.00;100651.91;5018559;28;20116;-75
2023/06/30 02:41:15;;;;;;;44.67;28.25;;;19.30;99.90;;;18.55;100.00;100655.53;5026202;28;20173;-75
2023/06/30 02:43:42;;;;;;;46.30;28.83;;;19.30;99.90;;;18.53;100.00;100660.13;5017228;28;20121;-75
2023/06/30 02:46:08;;;;;;;52.35;29.90;;;19.30;99.90;;;18.50;100.00;100655.91;5018454;28;20033;-75
2023/06/30 02:48:34;;;;;;;48.08;28.80;;;19.30;99.90;;;18.48;100.00;100655.16;5019814;28;20029;-75
2023/06/30 02:51:00;;;;;;;44.40;28.77;;;19.30;99.90;;;18.47;100.00;100652.66;5018594;28;20124;-75
2023/06/30 02:53:25;;;;;;;;;;;19.30;99.90;;;18.41;100.00;100653.97;5015879;28;20025;-75
2023/06/30 02:55:51;;;;;;;48.78;27.65;;;19.20;99.90;;;18.38;100.00;100655.09;5023609;28;20412;-75
2023/06/30 02:58:17;;;;;;;;;;;19.20;99.90;;;18.33;100.00;100654.59;5018641;28;20450;-75
2023/06/30 03:00:42;;;;;;;47.55;28.42;;;19.20;99.90;;;18.31;100.00;100651.19;5041552;28;20290;-75
2023/06/30 03:03:08;;;;;;;;;;;19.10;99.90;;;18.27;100.00;100656.91;5039949;28;20108;-75
2023/06/30 03:05:34;;;;;;;51.63;30.48;;;19.10;99.90;;;18.24;100.00;100650.00;5019028;28;20051;-74
2023/06/30 03:08:00;;;;;;;54.13;29.33;;;19.10;99.90;;;18.24;100.00;100652.66;5018393;28;20188;-74
2023/06/30 03:10:25;;;;;;;48.30;29.63;;;19.10;99.90;;;18.27;100.00;100651.56;5017243;28;20030;-74
2023/06/30 03:12:54;;;;;;;52.17;31.90;;;19.10;99.90;;;18.28;100.00;100645.28;5017102;28;20029;-74
2023/06/30 03:15:20;;;;;;;53.10;29.40;;;19.10;99.90;;;18.27;100.00;100641.75;5014324;28;20076;-74
2023/06/30 03:17:46;;;;;;;52.00;31.15;;;19.10;99.90;;;18.30;100.00;100638.03;5020660;28;20418;-74
2023/06/30 03:20:12;;;;;;;50.45;31.45;;;19.10;99.90;;;18.30;100.00;100640.69;4999892;28;20123;-74
2023/06/30 03:22:42;;;;;;;54.95;31.63;;;19.10;99.90;;;18.29;100.00;100636.31;5017231;28;20410;-74
2023/06/30 03:25:09;;;;;;;50.88;31.25;;;19.10;99.90;;;18.29;100.00;100639.81;5014491;28;20112;-75
2023/06/30 03:27:37;;;;;;;60.22;32.03;;;19.10;99.90;;;18.28;100.00;100631.97;5016525;28;20584;-75
2023/06/30 03:30:04;;;;;;;55.38;32.42;;;19.10;99.90;;;18.28;100.00;100626.63;5016352;28;20030;-74
2023/06/30 03:32:31;;;;;;;55.53;32.40;;;19.10;99.90;;;18.28;100.00;100630.13;5038621;28;20485;-74
2023/06/30 03:34:57;;;;;;;52.97;32.45;;;19.10;99.90;;;18.30;100.00;100627.34;5016884;28;20025;-75
2023/06/30 03:37:23;;;;;;;58.10;33.50;;;19.10;99.90;;;18.31;100.00;100621.03;5016108;28;20029;-75
2023/06/30 03:39:48;;;;;;;56.38;32.15;;;19.10;99.90;;;18.31;100.00;100629.03;5016645;28;20033;-75
2023/06/30 03:42:14;;;;;;;;;;;19.10;99.90;;;18.28;100.00;100626.63;5018968;28;20033;-74
2023/06/30 03:44:40;;;;;;;55.67;33.03;;;19.00;99.90;;;18.24;100.00;100628.69;5017859;28;20417;-74
2023/06/30 03:47:06;;;;;;;57.33;32.58;;;19.00;99.90;;;18.25;100.00;100633.06;5016365;28;20472;-75
2023/06/30 03:49:32;;;;;;;61.47;32.95;;;19.00;99.90;;;18.25;100.00;100630.41;5015504;28;20029;-74
2023/06/30 03:51:57;;;;;;;57.58;33.25;;;19.00;99.90;;;18.27;100.00;100632.91;5018349;28;20131;-75
2023/06/30 03:54:23;;;;;;;57.50;31.83;;;19.00;99.90;;;18.28;100.00;100629.28;5013074;28;20243;-77
2023/06/30 03:56:49;;;;;;;57.47;32.38;;;19.00;99.90;;;18.31;100.00;100626.38;5015739;28;20033;-77
2023/06/30 03:59:17;;;;;;;;;;;19.10;99.90;;;18.29;100.00;100622.97;4999249;28;20054;-77
2023/06/30 04:01:44;;;;;;;53.90;30.15;;;19.10;99.90;;;18.29;100.00;100625.66;5000685;28;19913;-77
2023/06/30 04:04:10;;;;;;;50.92;30.02;;;19.10;99.90;;;18.32;100.00;100630.75;5016896;28;20764;-77
2023/06/30 04:06:36;;;;;;;53.88;31.25;;;19.10;99.90;;;18.34;100.00;100639.47;5001783;28;20026;-76
2023/06/30 04:09:03;;;;;;;52.85;31.20;;;19.10;99.90;;;18.36;100.00;100637.53;5015047;28;20484;-76
2023/06/30 04:11:28;;;;;;;54.88;31.63;;;19.10;99.90;;;18.38;100.00;100649.75;5039127;28;20032;-76
2023/06/30 04:14:00;;;;;;;68.80;34.08;;;19.10;99.90;;;18.42;100.00;100634.34;5020363;28;20030;-75
2023/06/30 04:16:25;;;;;;;62.20;32.65;;;19.20;99.90;;;18.44;100.00;100641.25;5018369;28;20033;-75
2023/06/30 04:18:53;;;;;;;53.17;30.27;;;19.20;99.90;;;18.48;100.00;100641.84;5018132;28;20045;-75
2023/06/30 04:21:19;;;;;;;47.60;29.27;;;19.20;99.90;;;18.52;100.00;100643.28;5017861;28;20031;-75
2023/06/30 04:23:45;;;;;;;52.03;30.40;;;19.20;99.90;;;18.55;100.00;100639.53;4997747;28;20056;-76
2023/06/30 04:26:10;;;;;;;52.42;29.42;;;19.30;99.90;;;18.56;100.00;100642.06;5018083;28;20116;-75
2023/06/30 04:28:39;;;;;;;47.78;28.70;;;19.30;99.90;;;18.60;100.00;100632.00;5042863;28;20026;-75
2023/06/30 04:31:05;;;;;;;47.45;27.88;;;19.30;99.90;;;18.64;100.00;100639.63;5019056;28;20394;-75
2023/06/30 04:33:32;;;;;;;49.65;28.17;;;19.40;99.90;;;18.68;100.00;100644.69;5016677;28;20108;-75
2023/06/30 04:35:58;;;;;;;51.33;29.02;;;19.40;99.90;;;18.70;100.00;100648.94;5017484;28;20087;-75
2023/06/30 04:38:24;;;;;;;45.53;27.23;;;19.50;99.90;;;18.72;100.00;100644.31;5017737;28;20057;-74
2023/06/30 04:40:50;;;;;;;47.13;27.48;;;19.40;99.90;;;18.75;100.00;100643.25;5035285;28;20090;-74
2023/06/30 04:43:16;;;;;;;46.92;27.73;;;19.50;99.90;;;18.80;100.00;100646.41;5017887;28;20563;-74
2023/06/30 04:45:42;;;;;;;52.90;28.38;;;19.50;99.90;;;18.88;100.00;100643.94;5016352;28;20036;-74
2023/06/30 04:48:08;;;;;;;47.50;27.40;;;19.60;99.90;;;19.02;100.00;100645.47;5037807;28;20030;-74
2023/06/30 04:50:36;;;;;;;47.55;28.58;;;19.70;99.90;;;19.24;100.00;100644.50;5020148;28;20426;-74
2023/06/30 04:53:01;;;;;;;46.08;28.33;;;19.90;99.90;;;19.56;100.00;100643.59;5015762;28;20041;-74
2023/06/30 04:55:27;;;;;;;48.08;28.20;;;20.10;99.90;;;19.85;100.00;100641.97;5017031;28;20065;-75
2023/06/30 04:57:55;;;;;;;;;;;20.20;99.90;;;20.06;100.00;100638.38;5015725;28;20038;-74
2023/06/30 05:00:21;;;;;;;48.45;29.35;;;20.50;99.90;;;20.14;100.00;100637.72;5039200;28;19921;-74
2023/06/30 05:02:48;;;;;;;48.85;28.48;;;20.60;99.90;;;20.19;100.00;100648.84;5015562;28;20037;-76
2023/06/30 05:05:14;;;;;;;50.75;28.90;;;20.70;99.90;;;20.14;100.00;100625.19;5016732;28;20510;-76
2023/06/30 05:07:40;;;;;;;61.17;31.85;;;20.70;99.90;;;20.12;100.00;100632.50;5021102;28;20465;-76
2023/06/30 05:10:07;;;;;;;48.63;30.27;;;20.70;99.90;;;20.09;100.00;100627.44;5014927;28;20029;-76
2023/06/30 05:12:32;;;;;;;54.13;30.13;;;20.70;99.90;;;20.08;100.00;100628.41;5016666;28;20018;-76
2023/06/30 05:14:58;;;;;;;55.30;32.92;;;20.70;99.90;;;20.10;100.00;100621.09;5014277;28;20040;-76
2023/06/30 05:17:24;;;;;;;55.28;30.45;;;20.70;99.90;;;20.20;100.00;100624.66;5021302;28;20625;-76
2023/06/30 05:19:50;;;;;;;51.88;31.40;;;20.90;99.90;;;20.57;100.00;100626.72;5039405;28;20037;-76
2023/06/30 05:22:15;;;;;;;;;;;20.90;99.90;;;21.68;99.83;100635.25;5042784;28;20109;-76
2023/06/30 05:24:41;;;;;;;54.38;31.33;;;21.80;99.90;;;21.98;95.46;100631.47;5019189;28;19917;-76
2023/06/30 05:27:07;;;;;;;55.33;30.40;;;21.80;99.90;;;22.57;91.51;100633.88;5018414;28;20521;-76
2023/06/30 05:29:33;;;;;;;46.20;28.13;;;22.70;99.90;;;23.04;87.49;100634.50;5021266;28;20101;-75
2023/06/30 05:31:58;;;;;;;;;;;22.80;99.90;;;23.27;85.73;100631.34;5018415;28;20401;-76
2023/06/30 05:34:24;;;;;;;45.35;28.27;;;23.30;99.90;;;23.12;84.70;100633.75;5038621;28;19923;-76
2023/06/30 05:36:52;;;;;;;53.20;29.52;;;23.20;99.90;;;22.79;85.21;100627.22;5022757;28;20064;-76
2023/06/30 05:39:18;;;;;;;43.50;28.42;;;23.10;99.90;;;22.49;86.52;100619.38;5041467;28;20033;-76
2023/06/30 05:41:44;;;;;;;54.33;29.45;;;23.00;99.90;;;22.27;87.50;100617.97;5038152;28;20521;-77
2023/06/30 05:44:10;;;;;;;50.03;28.15;;;22.80;99.90;;;22.09;88.22;100620.56;5019424;28;20071;-75
2023/06/30 05:46:39;;;;;;;51.45;28.88;;;22.70;99.90;;;22.08;88.27;100616.19;5018033;28;20060;-76
2023/06/30 05:49:05;;;;;;;45.38;28.55;;;22.60;99.90;;;22.08;89.08;100618.03;5016886;28;20033;-76
2023/06/30 05:51:33;;;;;;;45.53;26.08;;;22.50;99.90;;;21.94;88.29;100618.53;5016996;28;20117;-75
2023/06/30 05:53:59;;;;;;;50.85;28.17;;;22.50;99.90;;;21.79;89.39;100621.69;5017697;28;20065;-76
2023/06/30 05:56:25;;;;;;;45.92;26.30;;;22.40;99.90;;;21.65;90.29;100627.53;5019293;28;20029;-75
2023/06/30 05:58:51;;;;;;;46.30;28.00;;;22.30;99.90;;;21.58;90.76;100624.59;5019001;28;20029;-75
2023/06/30 06:01:17;;;;;;;49.05;27.65;;;22.20;99.90;;;21.45;91.68;100621.38;5019154;28;20405;-76
2023/06/30 06:03:43;;;;;;;48.25;27.27;;;22.00;99.90;;;21.07;92.36;100629.28;5020993;28;20034;-75
2023/06/30 06:06:08;;;;;;;47.38;25.58;;;21.70;99.90;;;20.54;94.47;100635.00;5040031;28;20034;-76
2023/06/30 06:08:34;;;;;;;14.10;9.35;;;21.30;99.90;;;19.91;96.27;100623.69;5017221;28;20042;-75
2023/06/30 06:11:00;;;;;;;7.20;4.68;;;20.90;99.90;;;19.57;96.27;100631.94;5043001;28;20042;-75
2023/06/30 06:13:37;;;;;;;12.85;4.95;;;20.60;99.90;;;19.32;96.60;100634.03;5041372;28;20552;-76
2023/06/30 06:16:05;;;;;;;11.23;4.90;;;20.30;99.90;;;19.01;98.49;100633.09;5039953;28;20060;-76
2023/06/30 06:18:31;;;;;;;10.98;4.85;;;20.10;99.90;;;18.91;100.00;100635.69;5039204;28;20038;-76
2023/06/30 06:20:58;;;;;;;15.77;5.47;;;19.90;99.90;;;18.78;100.00;100643.84;5057128;22;20050;-78
2023/06/30 06:23:25;;;;;;;11.48;4.50;;;19.80;99.90;;;18.73;100.00;100638.03;4999858;28;20113;-78
2023/06/30 06:25:51;;;;;;;9.68;5.18;;;19.60;99.90;;;18.72;100.00;100644.31;5013253;28;20626;-77
2023/06/30 06:28:17;;;;;;;10.30;4.53;;;19.60;99.90;;;18.60;100.00;100648.84;4998202;28;20038;-78
2023/06/30 06:30:46;;;;;;;13.90;5.80;;;19.50;99.90;;;18.55;100.00;100648.38;4981708;28;20037;-78
2023/06/30 06:33:12;;;;;;;14.18;5.65;;;19.40;99.90;;;18.56;100.00;100657.22;4999304;28;20021;-77
2023/06/30 06:35:38;;;;;;;14.48;5.60;;;19.40;99.90;;;18.52;100.00;100658.44;4979435;28;20029;-77
2023/06/30 06:38:04;;;;;;;11.75;5.38;;;19.30;99.90;;;18.40;100.00;100658.47;5000258;28;20137;-77
2023/06/30 06:40:29;;;;;;;15.45;5.68;;;19.30;99.90;;;18.42;100.00;100661.00;5002123;28;20069;-79
2023/06/30 06:42:56;;;;;;;9.57;5.32;;;19.20;99.90;;;18.36;100.00;100656.19;4995560;28;20081;-77
2023/06/30 06:45:30;;;;;;;11.27;4.78;;;19.30;99.90;;;18.41;100.00;100656.66;4980017;28;20494;-77
2023/06/30 06:48:20;;;;;;;12.82;5.53;;;19.20;99.90;;;18.50;100.00;100663.06;4996663;28;20041;-78
2023/06/30 06:50:58;;;;;;;14.52;5.72;;;19.30;99.90;;;18.62;100.00;100662.91;4982131;28;21291;-78
2023/06/30 06:53:34;;;;;;;10.93;5.13;;;19.40;99.90;;;18.71;100.00;100668.47;4981267;28;20113;-77
2023/06/30 06:56:01;;;;;;;12.93;5.25;;;19.50;99.90;;;18.76;100.00;100671.59;4997077;28;20498;-79
2023/06/30 06:58:30;;;;;;;12.57;5.15;;;19.50;99.90;;;18.87;100.00;100679.59;4981597;28;20040;-78
2023/06/30 07:00:56;;;;;;;13.80;4.78;;;19.60;99.90;;;18.91;100.00;100675.69;4978877;28;20029;-75
2023/06/30 07:03:22;;;;;;;9.63;4.53;;;19.70;99.90;;;19.02;100.00;100686.31;4980078;28;20545;-76
2023/06/30 07:05:49;;;;;;;10.43;4.60;;;19.80;99.90;;;19.15;100.00;100682.66;4977878;28;20034;-74
2023/06/30 07:08:16;;;;;;;7.07;4.22;;;19.90;99.90;;;19.29;100.00;100681.47;4999352;28;20510;-75
2023/06/30 07:10:44;;;;;;;10.73;4.40;;;19.90;99.90;;;19.48;100.00;100678.94;4996442;28;20488;-75
2023/06/30 07:13:10;;;;;;;10.65;3.80;;;20.20;99.90;;;19.64;100.00;100670.50;4996224;28;20040;-74
2023/06/30 07:15:36;;;;;;;9.80;3.70;;;20.30;99.90;;;19.75;100.00;100675.78;5000015;28;20027;-76
2023/06/30 07:18:03;;;;;;;9.88;3.92;;;20.40;99.90;;;19.90;100.00;100681.63;4997290;28;20068;-76
2023/06/30 07:20:28;;;;;;;9.95;3.65;;;20.60;99.90;;;20.03;99.19;100681.41;4995788;28;20037;-75
2023/06/30 07:22:56;;;;;;;10.40;3.97;;;20.70;99.90;;;20.24;98.06;100676.03;4996891;28;20400;-75
2023/06/30 07:25:23;;;;;;;10.95;3.15;;;20.90;99.90;;;20.36;96.42;100677.59;4981182;28;20069;-75
2023/06/30 07:27:54;;;;;;;10.10;3.40;;;21.10;99.90;;;20.66;95.26;100689.25;4996299;28;20043;-75
2023/06/30 07:30:21;;;;;;;9.77;3.05;;;21.30;99.90;;;20.92;93.89;100684.22;4996423;28;20584;-75
2023/06/30 07:32:49;;;;;;;9.65;3.40;;;21.50;99.90;;;21.10;92.96;100681.69;4996259;28;20027;-75
2023/06/30 07:35:16;;;;;;;11.98;2.65;;;21.70;99.90;;;21.57;90.56;100686.34;4999698;28;20157;-75
2023/06/30 07:37:42;;;;;;;10.30;2.95;;;22.20;99.90;;;22.40;85.81;100692.72;4981819;28;20413;-75
2023/06/30 07:40:09;;;;;;;12.98;2.67;;;22.60;99.90;;;22.61;84.01;100683.56;4999320;28;20041;-75
2023/06/30 07:42:34;;;;;;;10.50;2.72;;;22.80;99.90;;;22.44;82.27;100690.56;4996649;28;20081;-75
2023/06/30 07:45:00;;;;;;;7.35;2.83;;;22.80;99.90;;;22.10;82.44;100686.59;4997288;28;20034;-74
2023/06/30 07:47:26;;;;;;;9.20;2.80;;;22.60;99.90;;;21.80;83.64;100682.34;4996473;28;20034;-74
2023/06/30 07:49:52;;;;;;;12.50;2.88;;;22.50;99.90;;;21.58;84.63;100688.88;4999580;28;20105;-75
2023/06/30 07:52:17;;;;;;;12.95;2.72;;;22.20;99.90;;;21.29;84.29;100684.38;4996076;28;20061;-75
2023/06/30 07:54:45;;;;;;;11.18;2.60;;;22.00;99.90;;;20.95;86.35;100691.97;4994488;28;20497;-75
2023/06/30 07:57:10;;;;;;;9.88;2.28;;;21.70;99.90;;;20.58;86.98;100687.28;4995314;28;20121;-75
2023/06/30 07:59:36;;;;;;;11.48;1.77;;;21.40;99.90;;;20.16;87.66;100676.69;4995843;28;20053;-76
2023/06/30 08:02:02;;;;;;;6.13;1.95;;;21.10;99.90;;;20.01;89.51;100673.53;4998361;28;20520;-76
2023/06/30 08:04:29;;;;;;;8.57;2.30;;;20.90;99.90;;;19.94;91.65;100679.56;4997761;28;20053;-75
2023/06/30 08:06:55;;;;;;;10.20;2.50;;;20.90;99.90;;;20.32;92.62;100691.38;4994513;28;20026;-76
2023/06/30 08:09:21;;;;;;;7.05;2.03;;;21.20;99.90;;;20.90;91.00;100700.41;4997361;28;20140;-75
2023/06/30 08:11:46;;;;;;;;;;;21.20;99.90;;;21.24;88.75;100702.69;4997145;28;20058;-75
2023/06/30 08:14:12;;;;;;;9.23;2.42;;;21.80;99.90;;;21.65;85.39;100719.47;5021421;28;19914;-76
2023/06/30 08:16:38;;;;;;;8.43;1.55;;;22.00;99.90;;;21.67;82.38;100716.63;4996256;28;20038;-75
2023/06/30 08:19:04;;;;;;;;;;;22.00;99.90;;;21.64;81.99;100711.56;4996346;28;20030;-76
2023/06/30 08:21:29;;;;;;;10.55;1.58;;;22.10;99.90;;;21.68;81.85;100707.59;5020862;28;19924;-75
2023/06/30 08:23:55;;;;;;;9.07;1.60;;;22.20;99.90;;;21.88;80.35;100697.69;4994967;28;20121;-76
2023/06/30 08:26:21;;;;;;;8.55;1.75;;;22.40;99.90;;;22.07;78.26;100700.31;4999979;28;20077;-75
2023/06/30 08:28:47;;;;;;;10.60;2.08;;;22.40;99.90;;;22.09;79.20;100706.38;4994754;28;20055;-75
2023/06/30 08:31:12;;;;;;;5.78;1.73;;;22.60;99.90;;;22.28;78.51;100713.50;4993705;28;20061;-76
2023/06/30 08:33:38;;;;;;;6.30;1.70;;;22.70;99.90;;;22.29;77.63;100712.53;4994921;28;20038;-76
2023/06/30 08:36:05;;;;;;;4.93;1.70;;;22.70;99.90;;;22.04;77.95;100702.44;4994932;28;20426;-75
2023/06/30 08:38:31;;;;;;;7.15;1.50;;;22.50;99.90;;;21.73;76.59;100699.13;4998374;28;20037;-75
2023/06/30 08:40:58;;;;;;;6.72;1.67;;;22.30;99.90;;;21.42;75.46;100686.78;4995788;28;20239;-75
2023/06/30 08:43:27;;;;;;;6.03;1.50;;;22.30;99.90;;;21.78;76.19;100688.84;4996454;28;20037;-75
2023/06/30 08:45:54;;;;;;;8.27;1.52;;;22.50;99.90;;;22.22;74.86;100697.13;4994095;28;20038;-76
2023/06/30 08:48:20;;;;;;;4.47;1.40;;;22.80;99.90;;;22.77;73.06;100699.00;4979510;28;20080;-74
2023/06/30 08:50:47;;;;;;;6.32;1.45;;;23.20;99.90;;;23.13;71.59;100706.13;4999464;28;20026;-75
2023/06/30 08:53:13;;;;;;;3.88;1.50;;;23.50;99.90;;;23.24;70.52;100704.16;4995523;28;20585;-76
2023/06/30 08:55:40;;;;;;;4.65;1.65;;;23.50;99.90;;;23.10;70.36;100695.66;5001606;28;20030;-76
2023/06/30 08:58:06;;;;;;;5.05;1.25;;;23.50;99.90;;;22.88;69.40;100694.25;4999974;28;20032;-75
2023/06/30 09:00:31;;;;;;;6.28;1.95;;;23.40;99.90;;;22.59;69.31;100690.91;5001516;28;20030;-75
2023/06/30 09:03:04;;;;;;;4.30;1.40;;;23.20;99.90;;;22.54;70.04;100688.69;4982603;28;20064;-75
2023/06/30 09:05:36;;;;;;;6.78;1.10;;;23.10;99.90;;;22.42;70.85;100689.88;5000813;28;20458;-74
2023/06/30 09:08:10;;;;;;;8.55;1.55;;;23.00;99.90;;;22.23;72.59;100691.66;4998578;28;20045;-75
2023/06/30 09:10:41;;;;;;;6.72;1.58;;;22.80;99.90;;;22.05;73.08;100696.06;4999034;28;20026;-77
2023/06/30 09:13:10;;;;;;;4.25;1.20;;;22.70;99.90;;;22.08;73.30;100699.31;4998195;28;20149;-76
2023/06/30 09:15:37;;;;;;;9.48;1.40;;;22.70;99.90;;;22.01;73.12;100702.72;4995120;28;20031;-75
2023/06/30 09:18:03;;;;;;;3.67;0.85;;;22.70;99.90;;;21.90;71.56;100701.91;4996701;28;20037;-76
2023/06/30 09:20:31;;;;;;;5.75;1.50;;;22.50;99.90;;;21.55;71.99;100709.75;4999528;28;20061;-74
2023/06/30 09:23:01;;;;;;;8.27;1.48;;;22.20;99.90;;;21.21;73.21;100713.69;4997972;28;20576;-76
2023/06/30 09:25:27;;;;;;;6.75;1.42;;;22.00;99.90;;;20.93;73.94;100712.69;5001298;28;20109;-74
2023/06/30 09:27:56;;;;;;;6.68;1.40;;;21.70;99.90;;;20.73;75.48;100703.75;5000306;28;20038;-75
2023/06/30 09:30:36;;;;;;;9.00;1.15;;;21.60;99.90;;;20.60;75.76;100700.50;4982573;28;20037;-74
2023/06/30 09:33:06;;;;;;;7.40;1.30;;;21.40;99.90;;;20.43;76.38;100699.28;4998702;28;20023;-75
2023/06/30 09:35:46;;;;;;;5.47;1.50;;;21.20;99.90;;;20.14;77.77;100702.69;4982247;28;20045;-75
2023/06/30 09:38:18;;;;;;;5.03;1.35;;;21.00;99.90;;;19.98;78.19;100703.19;4994617;28;20050;-75
2023/06/30 09:40:52;;;;;;;7.07;1.20;;;20.90;99.90;;;19.98;78.80;100710.38;4999789;28;20049;-75
2023/06/30 09:43:23;;;;;;;4.68;1.25;;;20.80;99.90;;;19.81;78.80;100709.16;4997940;28;20053;-76
2023/06/30 09:46:00;;;;;;;4.60;0.98;;;20.70;99.90;;;19.82;79.22;100717.00;4996732;28;20053;-76
2023/06/30 09:48:39;;;;;;;4.07;1.10;;;20.60;99.90;;;19.61;80.27;100718.81;4999025;28;20048;-74
2023/06/30 09:51:07;;;;;;;8.48;1.25;;;20.50;99.90;;;19.47;80.65;100728.84;5000449;28;20030;-76
2023/06/30 09:53:39;;;;;;;7.72;1.33;;;20.30;99.90;;;19.33;80.75;100723.84;4981465;28;20154;-75
2023/06/30 09:56:06;;;;;;;7.68;1.35;;;20.20;99.90;;;19.27;80.64;100729.69;4999046;28;20041;-75
2023/06/30 09:58:31;;;;;;;7.10;1.30;;;20.10;99.90;;;19.18;80.47;100733.97;4999491;28;21231;-74
2023/06/30 10:00:58;;;;;;;8.18;1.20;;;20.00;99.90;;;19.00;80.84;100725.63;4993047;28;20045;-74
2023/06/30 10:03:30;;;;;;;4.63;1.10;;;19.90;99.90;;;18.94;81.09;100730.63;4992051;28;20042;-75
2023/06/30 10:05:58;;;;;;;8.00;1.52;;;19.90;99.90;;;18.91;82.01;100726.38;4976964;28;20034;-75